SWA1718 KLAS-KHOU
Flight info
| Callsign | SWA1718 |
|---|---|
| Flight time | N/A |
| Altitude | 35000 |
| Route | NIITZ4 SSKEE INW J86 ELP AGAZY FST CSI REUBE SAT BELLR6 |
| Aircraft | B738/M-SDE2E3GIJ4RWZ/LB1D1 |
Departure
| Time | 2026-05-07 21:54 |
|---|---|
| Airport | Harry Reid International Airport (KLAS) |
Arrival
| Time | N/A |
|---|---|
| Airport | William P. Hobby Airport (KHOU) |
| Time | Latitude | Longitude | Altitude | Speed | Heading |
|---|---|---|---|---|---|
| 2026-05-07 21:17 | 36.07957 | -115.14670 | 2187 ft | 0 kts | 27° |
| 2026-05-07 21:37 | 36.07955 | -115.14671 | 2187 ft | 3 kts | 28° |
| 2026-05-07 21:37 | 36.07933 | -115.14689 | 2188 ft | 4 kts | 43° |
| 2026-05-07 21:37 | 36.07918 | -115.14714 | 2191 ft | 4 kts | 75° |
| 2026-05-07 21:37 | 36.07919 | -115.14741 | 2189 ft | 4 kts | 135° |
| 2026-05-07 21:38 | 36.07925 | -115.14748 | 2188 ft | 0 kts | 155° |
| 2026-05-07 21:40 | 36.07923 | -115.14746 | 2189 ft | 1 kts | 155° |
| 2026-05-07 21:40 | 36.07908 | -115.14738 | 2190 ft | 4 kts | 155° |
| 2026-05-07 21:41 | 36.07873 | -115.14718 | 2189 ft | 7 kts | 155° |
| 2026-05-07 21:41 | 36.07849 | -115.14666 | 2188 ft | 8 kts | 97° |
| 2026-05-07 21:41 | 36.07843 | -115.14591 | 2188 ft | 9 kts | 95° |
| 2026-05-07 21:41 | 36.07837 | -115.14505 | 2187 ft | 11 kts | 95° |
| 2026-05-07 21:42 | 36.07830 | -115.14411 | 2187 ft | 11 kts | 95° |
| 2026-05-07 21:42 | 36.07826 | -115.14309 | 2187 ft | 12 kts | 90° |
| 2026-05-07 21:42 | 36.07827 | -115.14198 | 2190 ft | 13 kts | 88° |
| 2026-05-07 21:42 | 36.07827 | -115.14082 | 2189 ft | 13 kts | 90° |
| 2026-05-07 21:43 | 36.07827 | -115.13969 | 2191 ft | 13 kts | 90° |
| 2026-05-07 21:43 | 36.07827 | -115.13860 | 2188 ft | 13 kts | 90° |
| 2026-05-07 21:43 | 36.07827 | -115.13753 | 2191 ft | 12 kts | 90° |
| 2026-05-07 21:43 | 36.07827 | -115.13649 | 2191 ft | 12 kts | 90° |
| 2026-05-07 21:44 | 36.07827 | -115.13548 | 2190 ft | 12 kts | 89° |
| 2026-05-07 21:44 | 36.07834 | -115.13451 | 2189 ft | 11 kts | 78° |
| 2026-05-07 21:44 | 36.07827 | -115.13362 | 2192 ft | 10 kts | 98° |
| 2026-05-07 21:44 | 36.07825 | -115.13286 | 2190 ft | 8 kts | 90° |
| 2026-05-07 21:45 | 36.07824 | -115.13166 | 2187 ft | 19 kts | 91° |
| 2026-05-07 21:45 | 36.07824 | -115.13006 | 2187 ft | 18 kts | 89° |
| 2026-05-07 21:45 | 36.07823 | -115.12853 | 2187 ft | 18 kts | 87° |
| 2026-05-07 21:45 | 36.07827 | -115.12704 | 2187 ft | 17 kts | 88° |
| 2026-05-07 21:46 | 36.07824 | -115.12561 | 2188 ft | 16 kts | 96° |
| 2026-05-07 21:46 | 36.07825 | -115.12424 | 2189 ft | 16 kts | 84° |
| 2026-05-07 21:46 | 36.07831 | -115.12305 | 2187 ft | 9 kts | 89° |
| 2026-05-07 21:46 | 36.07810 | -115.12240 | 2189 ft | 5 kts | 127° |
| 2026-05-07 21:47 | 36.07809 | -115.12239 | 2189 ft | 0 kts | 127° |
| 2026-05-07 21:49 | 36.07801 | -115.12226 | 2188 ft | 6 kts | 127° |
| 2026-05-07 21:49 | 36.07770 | -115.12174 | 2187 ft | 8 kts | 127° |
| 2026-05-07 21:50 | 36.07742 | -115.12137 | 2188 ft | 0 kts | 148° |
| 2026-05-07 21:51 | 36.07702 | -115.12120 | 2190 ft | 13 kts | 170° |
| 2026-05-07 21:52 | 36.07642 | -115.12147 | 2189 ft | 9 kts | 255° |
| 2026-05-07 21:52 | 36.07642 | -115.12172 | 2189 ft | 0 kts | 270° |
| 2026-05-07 21:53 | 36.07642 | -115.12182 | 2189 ft | 7 kts | 270° |
| 2026-05-07 21:53 | 36.07641 | -115.12502 | 2189 ft | 73 kts | 271° |
| 2026-05-07 21:53 | 36.07642 | -115.13412 | 2188 ft | 137 kts | 270° |
| 2026-05-07 21:54 | 36.07633 | -115.14810 | 2245 ft | 183 kts | 269° |
| 2026-05-07 21:54 | 36.07644 | -115.16372 | 3087 ft | 178 kts | 271° |
| 2026-05-07 21:54 | 36.07681 | -115.17892 | 3830 ft | 180 kts | 270° |
| 2026-05-07 21:54 | 36.07687 | -115.19482 | 4378 ft | 196 kts | 269° |
| 2026-05-07 21:55 | 36.07561 | -115.21274 | 4627 ft | 221 kts | 260° |
| 2026-05-07 21:55 | 36.07257 | -115.23231 | 4897 ft | 239 kts | 250° |
| 2026-05-07 21:55 | 36.06441 | -115.25025 | 5458 ft | 241 kts | 231° |
| 2026-05-07 21:55 | 36.05306 | -115.26555 | 6016 ft | 248 kts | 214° |
| 2026-05-07 21:56 | 36.03716 | -115.27432 | 6635 ft | 254 kts | 200° |
| 2026-05-07 21:56 | 36.02038 | -115.28171 | 7369 ft | 256 kts | 201° |
| 2026-05-07 21:56 | 36.00289 | -115.28787 | 7882 ft | 274 kts | 185° |
| 2026-05-07 21:56 | 35.98377 | -115.28331 | 8338 ft | 291 kts | 153° |
| 2026-05-07 21:57 | 35.96755 | -115.26804 | 9109 ft | 296 kts | 139° |
| 2026-05-07 21:57 | 35.95239 | -115.25091 | 9838 ft | 302 kts | 139° |
| 2026-05-07 21:57 | 35.93659 | -115.23312 | 10335 ft | 317 kts | 139° |
| 2026-05-07 21:57 | 35.91955 | -115.21413 | 10510 ft | 342 kts | 137° |
| 2026-05-07 21:58 | 35.90441 | -115.19041 | 10681 ft | 365 kts | 120° |
| 2026-05-07 21:58 | 35.89150 | -115.16246 | 10938 ft | 382 kts | 119° |
| 2026-05-07 21:58 | 35.87808 | -115.13374 | 11486 ft | 388 kts | 118° |
| 2026-05-07 21:58 | 35.86834 | -115.10280 | 12189 ft | 387 kts | 100° |
| 2026-05-07 21:59 | 35.86689 | -115.06993 | 12971 ft | 385 kts | 85° |
| 2026-05-07 21:59 | 35.86867 | -115.03697 | 13688 ft | 386 kts | 84° |
| 2026-05-07 21:59 | 35.87082 | -115.00373 | 14263 ft | 390 kts | 83° |
| 2026-05-07 21:59 | 35.87301 | -114.97023 | 14838 ft | 393 kts | 84° |
| 2026-05-07 22:00 | 35.87512 | -114.93651 | 15416 ft | 395 kts | 84° |
| 2026-05-07 22:00 | 35.87713 | -114.90256 | 15986 ft | 398 kts | 84° |
| 2026-05-07 22:00 | 35.87906 | -114.86836 | 16623 ft | 398 kts | 84° |
| 2026-05-07 22:00 | 35.88091 | -114.83434 | 17454 ft | 395 kts | 84° |
| 2026-05-07 22:01 | 35.88275 | -114.80043 | 18067 ft | 398 kts | 84° |
| 2026-05-07 22:01 | 35.88457 | -114.76617 | 18570 ft | 402 kts | 84° |
| 2026-05-07 22:01 | 35.88640 | -114.73164 | 19012 ft | 407 kts | 84° |
| 2026-05-07 22:01 | 35.88825 | -114.69646 | 19433 ft | 412 kts | 84° |
| 2026-05-07 22:02 | 35.89009 | -114.66127 | 20060 ft | 411 kts | 84° |
| 2026-05-07 22:02 | 35.89193 | -114.62607 | 20613 ft | 412 kts | 83° |
| 2026-05-07 22:02 | 35.89376 | -114.59103 | 21065 ft | 416 kts | 83° |
| 2026-05-07 22:02 | 35.89560 | -114.55522 | 21498 ft | 420 kts | 83° |
| 2026-05-07 22:03 | 35.89735 | -114.51917 | 21977 ft | 423 kts | 85° |
| 2026-05-07 22:03 | 35.89796 | -114.48269 | 22434 ft | 426 kts | 87° |
| 2026-05-07 22:03 | 35.89775 | -114.44595 | 22884 ft | 429 kts | 88° |
| 2026-05-07 22:03 | 35.89727 | -114.40900 | 23337 ft | 432 kts | 88° |
| 2026-05-07 22:04 | 35.89676 | -114.37190 | 23734 ft | 434 kts | 88° |
| 2026-05-07 22:04 | 35.89632 | -114.33444 | 24109 ft | 437 kts | 87° |
| 2026-05-07 22:04 | 35.89595 | -114.29693 | 24522 ft | 438 kts | 87° |
| 2026-05-07 22:04 | 35.89564 | -114.25941 | 24925 ft | 439 kts | 87° |
| 2026-05-07 22:05 | 35.89536 | -114.22163 | 25305 ft | 441 kts | 87° |
| 2026-05-07 22:05 | 35.89510 | -114.18371 | 25669 ft | 443 kts | 87° |
| 2026-05-07 22:05 | 35.89484 | -114.14557 | 25993 ft | 446 kts | 87° |
| 2026-05-07 22:05 | 35.89455 | -114.10724 | 26383 ft | 448 kts | 87° |
| 2026-05-07 22:06 | 35.89425 | -114.06882 | 26767 ft | 448 kts | 87° |
| 2026-05-07 22:06 | 35.89393 | -114.03022 | 27112 ft | 450 kts | 87° |
| 2026-05-07 22:06 | 35.89360 | -113.99149 | 27400 ft | 453 kts | 87° |
| 2026-05-07 22:06 | 35.89326 | -113.95256 | 27692 ft | 455 kts | 87° |
| 2026-05-07 22:07 | 35.89290 | -113.91362 | 28028 ft | 456 kts | 87° |
| 2026-05-07 22:07 | 35.89253 | -113.87438 | 28334 ft | 457 kts | 87° |
| 2026-05-07 22:07 | 35.89216 | -113.83548 | 28607 ft | 460 kts | 87° |
| 2026-05-07 22:07 | 35.89176 | -113.79602 | 28956 ft | 460 kts | 87° |
| 2026-05-07 22:08 | 35.89133 | -113.75665 | 29417 ft | 458 kts | 87° |
| 2026-05-07 22:08 | 35.89089 | -113.71754 | 29959 ft | 454 kts | 87° |
| 2026-05-07 22:08 | 35.89045 | -113.67875 | 30482 ft | 451 kts | 87° |
| 2026-05-07 22:08 | 35.89002 | -113.64019 | 30965 ft | 448 kts | 87° |
| 2026-05-07 22:09 | 35.88961 | -113.60169 | 31222 ft | 450 kts | 87° |
| 2026-05-07 22:09 | 35.88913 | -113.56254 | 31379 ft | 453 kts | 87° |
| 2026-05-07 22:09 | 35.88818 | -113.52365 | 31718 ft | 454 kts | 91° |
| 2026-05-07 22:09 | 35.88398 | -113.48514 | 32196 ft | 452 kts | 95° |
| 2026-05-07 22:10 | 35.87835 | -113.44704 | 32585 ft | 450 kts | 97° |
| 2026-05-07 22:10 | 35.87236 | -113.40961 | 32821 ft | 452 kts | 97° |
| 2026-05-07 22:10 | 35.86629 | -113.37160 | 33080 ft | 453 kts | 97° |
| 2026-05-07 22:10 | 35.86037 | -113.33346 | 33409 ft | 452 kts | 96° |
| 2026-05-07 22:11 | 35.85462 | -113.29541 | 33792 ft | 450 kts | 96° |
| 2026-05-07 22:11 | 35.84903 | -113.25751 | 34085 ft | 449 kts | 96° |
| 2026-05-07 22:11 | 35.84351 | -113.21965 | 34358 ft | 448 kts | 96° |
| 2026-05-07 22:11 | 35.83803 | -113.18191 | 34658 ft | 446 kts | 96° |
| 2026-05-07 22:12 | 35.83256 | -113.14420 | 34914 ft | 446 kts | 96° |
| 2026-05-07 22:12 | 35.82709 | -113.10648 | 34953 ft | 449 kts | 96° |
| 2026-05-07 22:12 | 35.81603 | -113.03073 | 34972 ft | 448 kts | 96° |
| 2026-05-07 22:13 | 35.80495 | -112.95559 | 34983 ft | 444 kts | 96° |
| 2026-05-07 22:13 | 35.79392 | -112.88102 | 34990 ft | 441 kts | 96° |
| 2026-05-07 22:14 | 35.78292 | -112.80689 | 34992 ft | 440 kts | 96° |
| 2026-05-07 22:14 | 35.77190 | -112.73283 | 35008 ft | 439 kts | 96° |
| 2026-05-07 22:15 | 35.76082 | -112.65874 | 34996 ft | 440 kts | 96° |
| 2026-05-07 22:15 | 35.74967 | -112.58449 | 35009 ft | 442 kts | 96° |
| 2026-05-07 22:16 | 35.73846 | -112.50995 | 34997 ft | 444 kts | 96° |
| 2026-05-07 22:16 | 35.72715 | -112.43506 | 35004 ft | 446 kts | 96° |
| 2026-05-07 22:17 | 35.71575 | -112.35990 | 34999 ft | 447 kts | 96° |
| 2026-05-07 22:17 | 35.70428 | -112.28460 | 35006 ft | 448 kts | 96° |
| 2026-05-07 22:18 | 35.68693 | -112.17147 | 35007 ft | 449 kts | 96° |
| 2026-05-07 22:19 | 35.67532 | -112.09610 | 34999 ft | 448 kts | 96° |
| 2026-05-07 22:19 | 35.66367 | -112.02080 | 35008 ft | 447 kts | 96° |
| 2026-05-07 22:20 | 35.65202 | -111.94580 | 35018 ft | 445 kts | 96° |
| 2026-05-07 22:20 | 35.64037 | -111.87107 | 35022 ft | 444 kts | 96° |
| 2026-05-07 22:21 | 35.62094 | -111.79892 | 35038 ft | 455 kts | 118° |
| 2026-05-07 22:21 | 35.58542 | -111.73423 | 35034 ft | 457 kts | 120° |
| 2026-05-07 22:22 | 35.54921 | -111.67028 | 35028 ft | 456 kts | 120° |
| 2026-05-07 22:22 | 35.51329 | -111.60588 | 35027 ft | 456 kts | 120° |
| 2026-05-07 22:23 | 35.47796 | -111.54187 | 35020 ft | 456 kts | 119° |
| 2026-05-07 22:23 | 35.44218 | -111.47696 | 35028 ft | 456 kts | 120° |
| 2026-05-07 22:24 | 35.40656 | -111.41246 | 35026 ft | 457 kts | 120° |
| 2026-05-07 22:24 | 35.37110 | -111.34839 | 35022 ft | 458 kts | 120° |
| 2026-05-07 22:25 | 35.33531 | -111.28389 | 35003 ft | 458 kts | 120° |
| 2026-05-07 22:25 | 35.29958 | -111.21961 | 35007 ft | 456 kts | 120° |
| 2026-05-07 22:26 | 35.26383 | -111.15542 | 34993 ft | 456 kts | 120° |
| 2026-05-07 22:26 | 35.22809 | -111.09136 | 35000 ft | 455 kts | 120° |
| 2026-05-07 22:27 | 35.19233 | -111.02734 | 35021 ft | 455 kts | 120° |
| 2026-05-07 22:27 | 35.15660 | -110.96350 | 35055 ft | 455 kts | 120° |
| 2026-05-07 22:28 | 35.12088 | -110.89979 | 35082 ft | 455 kts | 120° |
| 2026-05-07 22:28 | 35.08511 | -110.83610 | 35110 ft | 455 kts | 121° |
| 2026-05-07 22:29 | 35.04829 | -110.77314 | 35119 ft | 457 kts | 125° |
| 2026-05-07 22:29 | 35.00774 | -110.71330 | 35129 ft | 458 kts | 127° |
| 2026-05-07 22:30 | 34.96674 | -110.65372 | 35121 ft | 459 kts | 127° |
| 2026-05-07 22:30 | 34.92598 | -110.59368 | 35098 ft | 460 kts | 127° |
| 2026-05-07 22:31 | 34.88524 | -110.53349 | 35062 ft | 461 kts | 127° |
| 2026-05-07 22:31 | 34.84433 | -110.47329 | 35038 ft | 462 kts | 127° |
| 2026-05-07 22:32 | 34.80327 | -110.41312 | 35002 ft | 462 kts | 128° |
| 2026-05-07 22:32 | 34.76208 | -110.35283 | 34987 ft | 463 kts | 128° |
| 2026-05-07 22:33 | 34.72086 | -110.29259 | 35022 ft | 464 kts | 128° |
| 2026-05-07 22:33 | 34.68650 | -110.24239 | 35053 ft | 465 kts | 128° |
| 2026-05-07 22:34 | 34.63829 | -110.17216 | 35091 ft | 465 kts | 128° |
| 2026-05-07 22:34 | 34.60359 | -110.12167 | 35119 ft | 466 kts | 128° |
| 2026-05-07 22:35 | 34.56198 | -110.06122 | 35144 ft | 466 kts | 129° |
| 2026-05-07 22:35 | 34.52038 | -110.00089 | 35136 ft | 467 kts | 129° |
| 2026-05-07 22:36 | 34.47859 | -109.94040 | 35120 ft | 468 kts | 129° |
| 2026-05-07 22:36 | 34.43666 | -109.87980 | 35092 ft | 470 kts | 130° |
| 2026-05-07 22:37 | 34.39453 | -109.81901 | 35096 ft | 471 kts | 130° |
| 2026-05-07 22:37 | 34.35256 | -109.75858 | 35075 ft | 472 kts | 131° |
| 2026-05-07 22:38 | 34.31027 | -109.69776 | 35052 ft | 472 kts | 131° |
| 2026-05-07 22:38 | 34.26794 | -109.63697 | 35015 ft | 473 kts | 131° |
| 2026-05-07 22:39 | 34.22698 | -109.57475 | 35063 ft | 473 kts | 128° |
| 2026-05-07 22:39 | 34.18765 | -109.51108 | 35108 ft | 472 kts | 129° |
| 2026-05-07 22:40 | 34.14731 | -109.44845 | 35151 ft | 471 kts | 132° |
| 2026-05-07 22:40 | 34.10482 | -109.38844 | 35181 ft | 470 kts | 134° |
| 2026-05-07 22:41 | 34.06187 | -109.32901 | 35176 ft | 470 kts | 134° |
| 2026-05-07 22:41 | 34.01904 | -109.26936 | 35158 ft | 470 kts | 134° |
| 2026-05-07 22:42 | 33.97607 | -109.20923 | 35289 ft | 475 kts | 134° |
| 2026-05-07 22:42 | 33.95454 | -109.17906 | 35533 ft | 474 kts | 135° |
| 2026-05-07 22:42 | 33.93330 | -109.14932 | 35778 ft | 473 kts | 135° |
| 2026-05-07 22:42 | 33.91185 | -109.11931 | 35942 ft | 474 kts | 135° |
| 2026-05-07 22:43 | 33.89030 | -109.08920 | 36108 ft | 474 kts | 136° |
| 2026-05-07 22:43 | 33.86879 | -109.05918 | 36292 ft | 474 kts | 136° |
| 2026-05-07 22:43 | 33.84727 | -109.02917 | 36497 ft | 473 kts | 136° |
| 2026-05-07 22:43 | 33.82575 | -108.99922 | 36660 ft | 474 kts | 136° |
| 2026-05-07 22:44 | 33.80420 | -108.96921 | 36837 ft | 473 kts | 137° |
| 2026-05-07 22:44 | 33.76108 | -108.90923 | 36897 ft | 475 kts | 137° |
| 2026-05-07 22:45 | 33.71775 | -108.84912 | 36899 ft | 476 kts | 137° |
| 2026-05-07 22:45 | 33.67445 | -108.78913 | 36905 ft | 475 kts | 138° |
| 2026-05-07 22:46 | 33.63114 | -108.72924 | 36912 ft | 475 kts | 139° |
| 2026-05-07 22:46 | 33.58775 | -108.66931 | 36914 ft | 475 kts | 139° |
| 2026-05-07 22:47 | 33.54433 | -108.60946 | 36915 ft | 476 kts | 140° |
| 2026-05-07 22:47 | 33.50080 | -108.54960 | 36920 ft | 476 kts | 140° |
| 2026-05-07 22:48 | 33.45726 | -108.48972 | 36916 ft | 477 kts | 140° |
| 2026-05-07 22:48 | 33.41369 | -108.42993 | 36927 ft | 477 kts | 141° |
| 2026-05-07 22:49 | 33.36996 | -108.37009 | 36925 ft | 478 kts | 141° |
| 2026-05-07 22:49 | 33.32615 | -108.31021 | 36915 ft | 478 kts | 141° |
| 2026-05-07 22:50 | 33.28235 | -108.25036 | 36920 ft | 479 kts | 141° |
| 2026-05-07 22:50 | 33.23839 | -108.19041 | 36916 ft | 479 kts | 142° |
| 2026-05-07 22:51 | 33.19437 | -108.13036 | 36891 ft | 481 kts | 142° |
| 2026-05-07 22:51 | 33.15062 | -108.07022 | 36904 ft | 479 kts | 142° |
| 2026-05-07 22:52 | 33.10694 | -108.01019 | 36920 ft | 479 kts | 142° |
| 2026-05-07 22:52 | 33.06324 | -107.95030 | 36910 ft | 478 kts | 142° |
| 2026-05-07 22:53 | 33.01955 | -107.89052 | 36905 ft | 477 kts | 142° |
| 2026-05-07 22:53 | 32.97591 | -107.83094 | 36904 ft | 477 kts | 143° |
| 2026-05-07 22:54 | 32.93220 | -107.77140 | 36892 ft | 476 kts | 143° |
| 2026-05-07 22:54 | 32.88901 | -107.71259 | 36897 ft | 474 kts | 143° |
| 2026-05-07 22:55 | 32.84548 | -107.65350 | 36869 ft | 475 kts | 143° |
| 2026-05-07 22:55 | 32.80183 | -107.59432 | 36884 ft | 477 kts | 143° |
| 2026-05-07 22:56 | 32.75771 | -107.53458 | 36871 ft | 478 kts | 143° |
| 2026-05-07 22:56 | 32.71400 | -107.47551 | 36871 ft | 479 kts | 144° |
| 2026-05-07 22:57 | 32.66999 | -107.41608 | 36864 ft | 479 kts | 144° |
| 2026-05-07 22:57 | 32.62593 | -107.35669 | 36862 ft | 479 kts | 144° |
| 2026-05-07 22:58 | 32.58184 | -107.29734 | 36856 ft | 479 kts | 144° |
| 2026-05-07 22:58 | 32.53764 | -107.23796 | 36868 ft | 479 kts | 144° |
| 2026-05-07 22:59 | 32.49341 | -107.17867 | 36909 ft | 480 kts | 144° |
| 2026-05-07 22:59 | 32.44913 | -107.11939 | 36948 ft | 480 kts | 144° |
| 2026-05-07 23:00 | 32.40497 | -107.06029 | 36997 ft | 479 kts | 145° |
| 2026-05-07 23:00 | 32.36086 | -107.00141 | 37041 ft | 478 kts | 145° |
| 2026-05-07 23:01 | 32.31684 | -106.94272 | 37053 ft | 476 kts | 145° |
| 2026-05-07 23:01 | 32.27282 | -106.88419 | 37031 ft | 476 kts | 146° |
| 2026-05-07 23:02 | 32.22866 | -106.82564 | 37039 ft | 479 kts | 145° |
| 2026-05-07 23:02 | 32.18424 | -106.76680 | 37008 ft | 480 kts | 145° |
| 2026-05-07 23:03 | 32.13965 | -106.70774 | 36945 ft | 482 kts | 145° |
| 2026-05-07 23:03 | 32.09511 | -106.64883 | 36940 ft | 481 kts | 145° |
| 2026-05-07 23:04 | 32.05056 | -106.59002 | 36968 ft | 480 kts | 145° |
| 2026-05-07 23:04 | 32.00994 | -106.53649 | 36954 ft | 478 kts | 145° |
| 2026-05-07 23:05 | 31.96542 | -106.47791 | 36956 ft | 476 kts | 145° |
| 2026-05-07 23:05 | 31.92181 | -106.42062 | 37003 ft | 471 kts | 145° |
| 2026-05-07 23:06 | 31.87817 | -106.36338 | 37011 ft | 469 kts | 146° |
| 2026-05-07 23:06 | 31.83467 | -106.30559 | 36998 ft | 475 kts | 140° |
| 2026-05-07 23:06 | 31.81597 | -106.27270 | 36995 ft | 491 kts | 131° |
| 2026-05-07 23:07 | 31.80126 | -106.23577 | 36968 ft | 508 kts | 121° |
| 2026-05-07 23:07 | 31.77904 | -106.15657 | 36938 ft | 512 kts | 118° |
| 2026-05-07 23:08 | 31.75802 | -106.07711 | 36889 ft | 512 kts | 118° |
| 2026-05-07 23:08 | 31.73626 | -105.99739 | 36861 ft | 512 kts | 119° |
| 2026-05-07 23:09 | 31.71398 | -105.91801 | 36846 ft | 512 kts | 119° |
| 2026-05-07 23:09 | 31.69144 | -105.83847 | 36851 ft | 513 kts | 119° |
| 2026-05-07 23:10 | 31.66886 | -105.75894 | 36841 ft | 515 kts | 119° |
| 2026-05-07 23:10 | 31.64616 | -105.67909 | 36847 ft | 516 kts | 119° |
| 2026-05-07 23:11 | 31.62339 | -105.59908 | 36857 ft | 517 kts | 119° |
| 2026-05-07 23:11 | 31.60050 | -105.51889 | 36863 ft | 518 kts | 119° |
| 2026-05-07 23:12 | 31.57756 | -105.43876 | 36855 ft | 518 kts | 119° |
| 2026-05-07 23:12 | 31.55471 | -105.35917 | 36863 ft | 518 kts | 119° |
| 2026-05-07 23:13 | 31.53168 | -105.27913 | 36874 ft | 517 kts | 119° |
| 2026-05-07 23:13 | 31.50868 | -105.19937 | 36877 ft | 516 kts | 119° |
| 2026-05-07 23:14 | 31.48565 | -105.11977 | 36884 ft | 515 kts | 119° |
| 2026-05-07 23:14 | 31.46258 | -105.04027 | 36896 ft | 514 kts | 119° |
| 2026-05-07 23:15 | 31.44346 | -104.97450 | 36887 ft | 513 kts | 120° |
| 2026-05-07 23:15 | 31.42043 | -104.89547 | 36892 ft | 511 kts | 119° |
| 2026-05-07 23:16 | 31.39747 | -104.81692 | 36911 ft | 509 kts | 120° |
| 2026-05-07 23:16 | 31.37449 | -104.73856 | 36921 ft | 509 kts | 120° |
| 2026-05-07 23:17 | 31.35151 | -104.66030 | 36925 ft | 508 kts | 120° |
| 2026-05-07 23:17 | 31.32845 | -104.58204 | 36929 ft | 508 kts | 120° |
| 2026-05-07 23:18 | 31.30540 | -104.50400 | 36934 ft | 508 kts | 120° |
| 2026-05-07 23:18 | 31.28229 | -104.42590 | 36944 ft | 508 kts | 120° |
| 2026-05-07 23:19 | 31.25909 | -104.34773 | 36946 ft | 508 kts | 120° |
| 2026-05-07 23:19 | 31.23585 | -104.26957 | 36937 ft | 509 kts | 120° |
| 2026-05-07 23:20 | 31.21252 | -104.19127 | 36948 ft | 509 kts | 120° |
| 2026-05-07 23:20 | 31.19002 | -104.11258 | 36943 ft | 515 kts | 116° |
| 2026-05-07 23:21 | 31.17277 | -104.03079 | 36948 ft | 520 kts | 113° |
| 2026-05-07 23:21 | 31.15689 | -103.94889 | 36953 ft | 520 kts | 113° |
| 2026-05-07 23:22 | 31.14026 | -103.86608 | 36951 ft | 520 kts | 114° |
| 2026-05-07 23:22 | 31.12324 | -103.78404 | 36950 ft | 521 kts | 114° |
| 2026-05-07 23:23 | 31.10602 | -103.70182 | 36951 ft | 521 kts | 114° |
| 2026-05-07 23:23 | 31.08878 | -103.61964 | 36954 ft | 522 kts | 114° |
| 2026-05-07 23:24 | 31.07164 | -103.53801 | 36952 ft | 521 kts | 114° |
| 2026-05-07 23:24 | 31.05429 | -103.45569 | 36939 ft | 522 kts | 114° |
| 2026-05-07 23:25 | 31.03690 | -103.37354 | 36936 ft | 522 kts | 114° |
| 2026-05-07 23:25 | 31.01943 | -103.29126 | 36938 ft | 523 kts | 114° |
| 2026-05-07 23:26 | 31.00191 | -103.20899 | 36976 ft | 523 kts | 114° |
| 2026-05-07 23:26 | 30.98433 | -103.12668 | 37001 ft | 523 kts | 114° |
| 2026-05-07 23:27 | 30.95786 | -103.00325 | 37036 ft | 524 kts | 114° |
| 2026-05-07 23:27 | 30.93927 | -102.92150 | 37040 ft | 520 kts | 117° |
| 2026-05-07 23:28 | 30.91821 | -102.84109 | 37044 ft | 518 kts | 118° |
| 2026-05-07 23:28 | 30.89680 | -102.76094 | 37024 ft | 518 kts | 117° |
| 2026-05-07 23:29 | 30.87574 | -102.68072 | 37013 ft | 518 kts | 117° |
| 2026-05-07 23:29 | 30.85486 | -102.60042 | 36991 ft | 518 kts | 117° |
| 2026-05-07 23:30 | 30.83405 | -102.52029 | 36979 ft | 517 kts | 117° |
| 2026-05-07 23:30 | 30.81319 | -102.44026 | 36984 ft | 515 kts | 117° |
| 2026-05-07 23:31 | 30.79234 | -102.36055 | 36991 ft | 515 kts | 117° |
| 2026-05-07 23:31 | 30.77149 | -102.28107 | 36994 ft | 514 kts | 117° |
| 2026-05-07 23:32 | 30.75059 | -102.20169 | 36993 ft | 513 kts | 117° |
| 2026-05-07 23:32 | 30.72981 | -102.12301 | 37000 ft | 512 kts | 117° |
| 2026-05-07 23:33 | 30.70882 | -102.04382 | 37003 ft | 512 kts | 117° |
| 2026-05-07 23:33 | 30.68779 | -101.96470 | 37011 ft | 512 kts | 117° |
| 2026-05-07 23:34 | 30.66672 | -101.88559 | 37007 ft | 512 kts | 117° |
| 2026-05-07 23:34 | 30.64562 | -101.80642 | 37022 ft | 513 kts | 117° |
| 2026-05-07 23:35 | 30.62438 | -101.72720 | 37021 ft | 513 kts | 117° |
| 2026-05-07 23:35 | 30.60312 | -101.64802 | 37021 ft | 513 kts | 117° |
| 2026-05-07 23:36 | 30.58181 | -101.56879 | 36994 ft | 515 kts | 117° |
| 2026-05-07 23:36 | 30.56056 | -101.48993 | 37010 ft | 514 kts | 117° |
| 2026-05-07 23:37 | 30.53913 | -101.41077 | 37046 ft | 514 kts | 117° |
| 2026-05-07 23:37 | 30.51762 | -101.33154 | 37060 ft | 515 kts | 117° |
| 2026-05-07 23:38 | 30.49606 | -101.25221 | 37048 ft | 517 kts | 116° |
| 2026-05-07 23:38 | 30.47440 | -101.17265 | 37041 ft | 517 kts | 116° |
| 2026-05-07 23:39 | 30.45269 | -101.09318 | 37015 ft | 518 kts | 116° |
| 2026-05-07 23:39 | 30.43089 | -101.01370 | 37010 ft | 518 kts | 116° |
| 2026-05-07 23:40 | 30.40901 | -100.93412 | 37025 ft | 518 kts | 116° |
| 2026-05-07 23:40 | 30.38708 | -100.85462 | 37038 ft | 518 kts | 116° |
| 2026-05-07 23:41 | 30.36511 | -100.77516 | 37048 ft | 517 kts | 116° |
| 2026-05-07 23:41 | 30.34317 | -100.69595 | 37048 ft | 516 kts | 116° |
| 2026-05-07 23:42 | 30.32123 | -100.61690 | 37044 ft | 515 kts | 117° |
| 2026-05-07 23:42 | 30.29923 | -100.53794 | 37021 ft | 515 kts | 117° |
| 2026-05-07 23:43 | 30.27724 | -100.45914 | 37003 ft | 514 kts | 117° |